Time;durP1;ratioP1;P1;durP2;ratioP2;P2;SDS_P1;SDS_P2;PMS_P1;PMS_P2;Temp;Humidity;BMP_temperature;BMP_pressure;BME280_temperature;BME280_humidity;BME280_pressure;Samples;Min_cycle;Max_cycle;Signal;HPM_P1;HPM_P2
2022/10/28 00:02:28;;;;;;;;;;;14.10;99.90;;;12.07;96.83;101463.03;10339252;28;20028;-89
2022/10/28 00:07:31;;;;;;;;;;;14.10;99.90;;;12.07;97.14;101460.38;10315765;28;19940;-89
2022/10/28 00:12:35;;;;;;;;;;;14.10;99.90;;;12.10;97.04;101472.53;10393494;28;19964;-89
2022/10/28 00:17:38;;;;;;;;;;;14.10;99.90;;;12.10;96.94;101472.53;10344814;28;19934;-89
2022/10/28 00:22:41;;;;;;;;;;;14.10;99.90;;;12.07;97.01;101460.38;10341915;28;19933;-89
2022/10/28 00:27:44;;;;;;;;;;;14.10;99.90;;;12.03;96.97;101465.13;10345969;28;19933;-88
2022/10/28 00:32:47;;;;;;;;;;;14.00;99.90;;;11.98;97.20;101463.91;10349175;28;19941;-87
2022/10/28 00:37:52;;;;;;;;;;;14.00;99.90;;;11.98;97.42;101456.75;10335475;28;19933;-87
2022/10/28 00:42:55;;;;;;;;;;;14.00;99.90;;;11.99;97.62;101458.41;10345278;28;20295;-87
2022/10/28 00:48:01;;;;;;;;;;;14.00;99.90;;;12.00;97.30;101448.63;10376747;28;19937;-87
2022/10/28 00:53:12;;;;;;;;;;;14.00;99.90;;;12.00;97.71;101443.31;10334816;28;20024;-88
2022/10/28 00:58:17;;;;;;;;;;;14.00;99.90;;;11.97;97.70;101435.59;10349088;28;19934;-87
2022/10/28 01:03:19;;;;;;;;;;;14.00;99.90;;;12.00;97.64;101441.47;10336974;28;19934;-87
2022/10/28 01:08:22;;;;;;;;;;;14.00;99.90;;;11.96;97.63;101437.41;10331718;28;19941;-87
2022/10/28 01:13:31;;;;;;;;;;;14.00;99.90;;;11.97;97.63;101448.91;10331515;28;19934;-88
2022/10/28 01:18:47;;;;;;;;;;;14.00;99.90;;;11.96;97.62;101449.91;10329234;28;20275;-88
2022/10/28 01:24:02;;;;;;;;;;;14.00;99.90;;;11.94;97.74;101443.88;10342214;28;19984;-88
2022/10/28 01:29:37;;;;;;;;;;;13.90;99.90;;;11.91;97.90;101450.31;10357372;28;19957;-87
2022/10/28 01:34:59;;;;;;;;;;;13.90;99.90;;;11.86;98.04;101444.59;10330223;28;19969;-88
2022/10/28 01:40:07;;;;;;;;;;;13.90;99.90;;;11.86;98.36;101447.25;10304909;28;19934;-88
2022/10/28 01:45:17;;;;;;;;;;;13.80;99.90;;;11.85;98.35;101440.25;10321610;28;20613;-88
2022/10/28 01:50:23;;;;;;;;;;;13.80;99.90;;;11.82;98.45;101434.41;10357474;28;20324;-88
2022/10/28 01:55:38;;;;;;;;;;;13.80;99.90;;;11.82;98.59;101427.25;10343457;28;20028;-88
2022/10/28 02:00:43;;;;;;;;;;;13.80;99.90;;;11.78;98.52;101437.31;10331801;28;20020;-88
2022/10/28 02:05:48;;;;;;;;;;;13.70;99.90;;;11.78;98.93;101431.97;10309792;28;19934;-87
2022/10/28 02:11:17;;;;;;;;;;;13.70;99.90;;;11.74;98.91;101427.91;10333426;28;20001;-88
2022/10/28 02:16:42;;;;;;;;;;;13.70;99.90;;;11.70;98.91;101436.38;10324579;28;19934;-89
2022/10/28 02:21:54;;;;;;;;;;;13.60;99.90;;;11.68;99.00;101430.31;10333945;28;19988;-89
2022/10/28 02:27:41;;;;;;;;;;;13.60;99.90;;;11.68;99.29;101423.19;10341658;28;19941;-89
2022/10/28 02:32:51;;;;;;;;;;;13.60;99.90;;;11.64;99.12;101429.78;10304440;28;19934;-89
2022/10/28 02:37:57;;;;;;;;;;;13.60;99.90;;;11.65;99.21;101427.97;10324437;28;19969;-89
2022/10/28 02:43:05;;;;;;;;;;;13.60;99.90;;;11.63;99.30;101429.91;10327169;28;20051;-89
2022/10/28 02:48:15;;;;;;;;;;;13.60;99.90;;;11.62;99.69;101431.75;10338300;28;19941;-89
2022/10/28 02:53:27;;;;;;;;;;;13.60;99.90;;;11.60;99.63;101425.72;10348452;28;19940;-89
2022/10/28 02:58:38;;;;;;;;;;;13.60;99.90;;;11.61;99.91;101427.41;10358293;28;19934;-90
2022/10/28 03:03:41;;;;;;;;;;;13.60;99.90;;;11.60;100.00;101424.91;10321988;28;19942;-90
2022/10/28 03:08:44;;;;;;;;;;;13.60;99.90;;;11.59;100.00;101433.88;10340930;28;19934;-87
2022/10/28 03:13:47;;;;;;;;;;;13.60;99.90;;;11.56;100.00;101426.16;10323324;28;19941;-87
2022/10/28 03:18:50;;;;;;;;;;;13.50;99.90;;;11.56;100.00;101428.81;10338787;28;19985;-87
2022/10/28 03:23:53;;;;;;;;;;;13.60;99.90;;;11.58;99.99;101430.38;10329486;28;19933;-88
2022/10/28 03:28:56;;;;;;;;;;;13.60;99.90;;;11.60;100.00;101430.22;10348172;28;19934;-88
2022/10/28 03:33:59;;;;;;;;;;;13.60;99.90;;;11.62;100.00;101433.56;10348214;28;19934;-88
2022/10/28 03:39:02;;;;;;;;;;;13.60;99.90;;;11.60;100.00;101424.91;10345408;28;19957;-88
2022/10/28 03:44:05;;;;;;;;;;;13.60;99.90;;;11.59;100.00;101426.72;10354599;28;20401;-89
2022/10/28 03:49:07;;;;;;;;;;;13.60;99.90;;;11.53;100.00;101425.47;10346957;28;20021;-88
2022/10/28 03:54:10;;;;;;;;;;;13.60;99.90;;;11.51;100.00;101421.25;10338636;28;19938;-89
2022/10/28 03:59:13;;;;;;;;;;;13.60;99.90;;;11.53;100.00;101422.81;10335943;28;19934;-94
2022/10/28 04:04:20;;;;;;;;;;;13.60;99.90;;;11.57;100.00;101425.16;10329058;28;19944;-90
2022/10/28 04:09:25;;;;;;;;;;;13.60;99.90;;;11.56;100.00;101421.69;10317404;28;19934;-90
2022/10/28 04:14:28;;;;;;;;;;;13.60;99.90;;;11.53;100.00;101419.31;10332273;28;19934;-88
2022/10/28 04:19:31;;;;;;;;;;;13.60;99.90;;;11.58;100.00;101410.91;10338380;28;20029;-88
2022/10/28 04:24:34;;;;;;;;;;;13.60;99.90;;;11.58;100.00;101401.09;10378351;28;20036;-88
2022/10/28 04:29:37;;;;;;;;;;;13.60;99.90;;;11.61;100.00;101406.09;10346711;28;19934;-87
2022/10/28 04:34:40;;;;;;;;;;;13.60;99.90;;;11.63;100.00;101395.31;10328128;28;19940;-88
2022/10/28 04:39:43;;;;;;;;;;;13.60;99.90;;;11.63;100.00;101393.47;10328704;28;20432;-88
2022/10/28 04:44:45;;;;;;;;;;;13.70;99.90;;;11.61;100.00;101383.97;10345699;28;19934;-88
2022/10/28 04:49:49;;;;;;;;;;;13.60;99.90;;;11.58;100.00;101389.59;10368716;28;20033;-87
2022/10/28 04:54:52;;;;;;;;;;;13.60;99.90;;;11.57;100.00;101382.56;10350732;28;19969;-87
2022/10/28 04:59:55;;;;;;;;;;;13.60;99.90;;;11.59;100.00;101397.44;10335446;28;20416;-87
2022/10/28 05:05:01;;;;;;;;;;;13.70;99.90;;;11.58;100.00;101387.78;10339201;28;20020;-87
2022/10/28 05:10:04;;;;;;;;;;;13.60;99.90;;;11.63;100.00;101384.66;10353036;28;19934;-87
2022/10/28 05:15:07;;;;;;;;;;;13.70;99.90;;;11.60;100.00;101385.81;10362827;28;19934;-86
2022/10/28 05:20:12;;;;;;;;;;;13.60;99.90;;;11.61;100.00;101386.63;10341512;28;19934;-88
2022/10/28 05:25:16;;;;;;;;;;;13.60;99.90;;;11.61;100.00;101391.97;10335991;28;19964;-88
2022/10/28 05:30:19;;;;;;;;;;;13.60;99.90;;;11.61;100.00;101395.47;10320301;28;20417;-87
2022/10/28 05:35:21;;;;;;;;;;;13.60;99.90;;;11.61;100.00;101394.63;10359026;28;19941;-87
2022/10/28 05:40:24;;;;;;;;;;;13.60;99.90;;;11.61;100.00;101397.28;10343646;28;19984;-87
2022/10/28 05:45:27;;;;;;;;;;;13.60;99.90;;;11.60;100.00;101404.44;10357133;28;19934;-87
2022/10/28 05:50:31;;;;;;;;;;;13.60;99.90;;;11.60;100.00;101407.09;10355099;28;20032;-87
2022/10/28 05:55:34;;;;;;;;;;;13.60;99.90;;;11.57;100.00;101406.53;10322937;28;19941;-87
2022/10/28 06:00:37;;;;;;;;;;;13.60;99.90;;;11.56;100.00;101416.34;10339553;28;20451;-87
2022/10/28 06:05:42;;;;;;;;;;;13.50;99.90;;;11.56;100.00;101424.34;10318801;28;20329;-87
2022/10/28 06:10:50;;;;;;;;;;;13.60;99.90;;;11.59;100.00;101429.38;10355579;28;19938;-87
2022/10/28 06:15:59;;;;;;;;;;;13.60;99.90;;;11.60;100.00;101432.88;10344663;28;19934;-87
2022/10/28 06:21:03;;;;;;;;;;;13.60;99.90;;;11.60;100.00;101438.22;10355460;28;19977;-87
2022/10/28 06:26:06;;;;;;;;;;;13.50;99.90;;;11.55;100.00;101437.78;10343362;28;19956;-87
2022/10/28 06:31:08;;;;;;;;;;;13.50;99.90;;;11.51;100.00;101443.44;10343004;28;19934;-87
2022/10/28 06:36:11;;;;;;;;;;;13.40;99.90;;;11.49;100.00;101445.38;10346622;28;19964;-87
2022/10/28 06:41:14;;;;;;;;;;;13.40;99.90;;;11.52;100.00;101439.78;10350012;28;20369;-87
2022/10/28 06:46:17;;;;;;;;;;;13.40;99.90;;;11.50;100.00;101435.56;10324921;28;20406;-88
2022/10/28 06:51:21;;;;;;;;;;;13.50;99.90;;;11.51;100.00;101445.22;10341325;28;20417;-88
2022/10/28 06:56:24;;;;;;;;;;;13.50;99.90;;;11.48;100.00;101449.03;10325661;28;19934;-87
2022/10/28 07:01:26;;;;;;;;;;;13.40;99.90;;;11.45;100.00;101448.47;10342611;28;20427;-88
2022/10/28 07:06:30;;;;;;;;;;;13.40;99.90;;;11.42;100.00;101448.75;10325209;28;19985;-87
2022/10/28 07:11:33;;;;;;;;;;;13.40;99.90;;;11.43;100.00;101440.63;10295626;28;19990;-88
2022/10/28 07:16:36;;;;;;;;;;;13.40;99.90;;;11.46;100.00;101443.00;10320921;28;19934;-88
2022/10/28 07:21:39;;;;;;;;;;;13.40;99.90;;;11.49;100.00;101452.53;10321836;28;20001;-88
2022/10/28 07:26:41;;;;;;;;;;;13.40;99.90;;;11.51;100.00;101456.72;10341069;28;19934;-87
2022/10/28 07:31:44;;;;;;;;;;;13.50;99.90;;;11.52;100.00;101455.75;10320393;28;20413;-87
2022/10/28 07:36:52;;;;;;;;;;;13.50;99.90;;;11.50;100.00;101460.34;10339060;28;19941;-88
2022/10/28 07:41:55;;;;;;;;;;;13.50;99.90;;;11.51;100.00;101469.19;10339746;28;19938;-88
2022/10/28 07:46:57;;;;;;;;;;;13.50;99.90;;;11.52;100.00;101461.06;10331103;28;19934;-88
2022/10/28 07:52:00;;;;;;;;;;;13.50;99.90;;;11.55;100.00;101454.59;10338064;28;19934;-89
2022/10/28 07:57:03;;;;;;;;;;;13.50;99.90;;;11.57;100.00;101443.81;10308420;28;19941;-88
2022/10/28 08:02:09;;;;;;;;;;;13.50;99.90;;;11.60;100.00;101448.84;10320065;28;19934;-88
2022/10/28 08:07:12;;;;;;;;;;;13.50;99.90;;;11.62;100.00;101436.22;10342740;28;19934;-88
2022/10/28 08:12:15;;;;;;;;;;;13.60;99.90;;;11.70;100.00;101425.72;10321218;28;20295;-88
2022/10/28 08:17:18;;;;;;;;;;;13.70;99.90;;;11.78;100.00;101436.47;10337051;28;19938;-88
2022/10/28 08:22:21;;;;;;;;;;;13.70;99.90;;;11.89;100.00;101446.97;10320760;28;19934;-88
2022/10/28 08:27:23;;;;;;;;;;;13.80;99.90;;;11.93;100.00;101448.34;10320048;28;19938;-88
2022/10/28 08:32:26;;;;;;;;;;;13.90;99.90;;;12.01;100.00;101451.13;10319275;28;20042;-88
2022/10/28 08:37:29;;;;;;;;;;;14.00;99.90;;;12.06;100.00;101453.38;10312291;28;19938;-88
2022/10/28 08:43:01;;;;;;;;;;;14.00;99.90;;;12.12;100.00;101449.28;10321590;28;19973;-88
2022/10/28 08:48:04;;;;;;;;;;;14.10;99.90;;;12.13;100.00;101453.63;10346798;28;20469;-88
2022/10/28 08:53:20;;;;;;;;;;;14.10;99.90;;;12.20;100.00;101460.03;10376050;28;20402;-88
2022/10/28 08:58:29;;;;;;;;;;;14.20;99.90;;;12.28;100.00;101460.94;10349556;28;20890;-88
2022/10/28 09:03:37;;;;;;;;;;;14.30;99.90;;;12.30;100.00;101466.16;10360380;28;19934;-89
2022/10/28 09:08:47;;;;;;;;;;;14.30;99.90;;;12.35;100.00;101469.19;10348131;28;19934;-88
2022/10/28 09:14:05;;;;;;;;;;;14.30;99.90;;;12.40;100.00;101460.75;10344813;28;19934;-88
2022/10/28 09:20:00;;;;;;;;;;;14.40;99.90;;;12.43;100.00;101450.66;10339044;28;19940;-88
2022/10/28 09:25:24;;;;;;;;;;;14.40;99.90;;;12.47;100.00;101449.34;10339909;28;19956;-88
2022/10/28 09:30:45;;;;;;;;;;;14.40;99.90;;;12.49;100.00;101457.22;10394754;28;19933;-88
2022/10/28 09:35:49;;;;;;;;;;;14.40;99.90;;;12.50;100.00;101461.56;10358232;28;19937;-88
2022/10/28 09:41:00;;;;;;;;;;;14.50;99.90;;;12.52;100.00;101457.72;10360378;28;20314;-88
2022/10/28 09:46:16;;;;;;;;;;;14.50;99.90;;;12.53;100.00;101445.22;10353039;28;19934;-86
2022/10/28 09:51:37;;;;;;;;;;;14.50;99.90;;;12.55;100.00;101449.44;10332414;28;19934;-87
2022/10/28 09:56:40;;;;;;;;;;;14.50;99.90;;;12.53;100.00;101454.09;10345131;28;19941;-88
2022/10/28 10:01:45;;;;;;;;;;;14.50;99.90;;;12.55;100.00;101454.78;10336503;28;20321;-88
2022/10/28 10:07:03;;;;;;;;;;;14.50;99.90;;;12.54;100.00;101458.44;10357624;28;19941;-89
2022/10/28 10:12:11;;;;;;;;;;;14.50;99.90;;;12.55;100.00;101456.59;10351959;28;20013;-89
2022/10/28 10:17:15;;;;;;;;;;;14.50;99.90;;;12.52;100.00;101451.56;10363544;28;19934;-89
2022/10/28 10:22:38;;;;;;;;;;;14.50;99.90;;;12.47;100.00;101445.84;10350677;28;19988;-88
2022/10/28 10:27:41;;;;;;;;;;;14.50;99.90;;;12.51;100.00;101441.88;10352558;28;19934;-88
2022/10/28 10:32:46;;;;;;;;;;;14.50;99.90;;;12.58;100.00;101451.78;10346568;28;19988;-88
2022/10/28 10:37:50;;;;;;;;;;;14.50;99.90;;;12.63;100.00;101445.19;10346400;28;19938;-88
2022/10/28 10:42:53;;;;;;;;;;;14.60;99.90;;;12.67;100.00;101446.56;10359878;28;20070;-90
2022/10/28 10:48:17;;;;;;;;;;;14.60;99.90;;;12.67;100.00;101446.56;10356145;28;20024;-89
2022/10/28 10:53:26;;;;;;;;;;;14.70;99.90;;;12.71;100.00;101438.09;10379788;28;19933;-89
2022/10/28 10:58:36;;;;;;;;;;;14.70;99.90;;;12.71;100.00;101432.75;10395670;28;19933;-88
2022/10/28 11:03:48;;;;;;;;;;;14.70;99.90;;;12.78;100.00;101430.34;10357921;28;20058;-88
2022/10/28 11:09:02;;;;;;;;;;;14.70;99.90;;;12.77;100.00;101431.31;10353625;28;19985;-89
2022/10/28 11:14:09;;;;;;;;;;;14.70;99.90;;;12.80;100.00;101436.34;10359354;28;19934;-89
2022/10/28 11:19:36;;;;;;;;;;;14.70;99.90;;;12.79;100.00;101432.84;10352964;28;19938;-89
2022/10/28 11:25:04;;;;;;;;;;;14.80;99.90;;;12.83;100.00;101436.03;10357052;28;19934;-89
2022/10/28 11:30:15;;;;;;;;;;;14.80;99.90;;;12.85;100.00;101429.56;10363366;28;19934;-89
2022/10/28 11:35:50;;;;;;;;;;;14.80;99.90;;;12.91;100.00;101424.63;10349159;28;19941;-89
2022/10/28 11:41:05;;;;;;;;;;;14.80;99.90;;;12.86;99.95;101414.41;10348413;28;19940;-89
2022/10/28 11:46:30;;;;;;;;;;;14.80;99.90;;;12.86;99.82;101417.06;10360124;28;19963;-89
2022/10/28 11:51:39;;;;;;;;;;;14.80;99.90;;;12.85;99.57;101399.41;10337432;28;19933;-90
2022/10/28 11:56:53;;;;;;;;;;;14.80;99.90;;;12.83;99.42;101399.56;10377345;28;19937;-89
2022/10/28 12:02:37;;;;;;;;;;;14.80;99.90;;;12.80;99.10;101386.50;10344286;28;19941;-90
2022/10/28 12:07:55;;;;;;;;;;;14.80;99.90;;;12.80;99.12;101399.00;10341413;28;19934;-90
2022/10/28 12:13:27;;;;;;;;;;;14.70;99.90;;;12.85;99.31;101386.91;10333332;28;19969;-90
2022/10/28 12:18:48;;;;;;;;;;;14.70;99.90;;;12.89;99.07;101382.06;10374160;28;20014;-90
2022/10/28 12:23:54;;;;;;;;;;;14.80;99.90;;;12.92;98.87;101383.63;10348648;28;19934;-90
2022/10/28 12:28:59;;;;;;;;;;;14.90;99.90;;;12.92;98.49;101373.78;10353641;28;20427;-89
2022/10/28 12:34:07;;;;;;;;;;;14.90;99.90;;;12.89;98.30;101376.72;10330503;28;19933;-89
2022/10/28 12:39:20;;;;;;;;;;;14.90;99.90;;;12.89;98.13;101370.56;10356533;28;19933;-90
2022/10/28 12:44:25;;;;;;;;;;;14.90;99.90;;;12.93;98.08;101366.59;10336638;28;20461;-89
2022/10/28 12:49:51;;;;;;;;;;;14.90;99.90;;;12.99;97.88;101361.47;10341085;28;19934;-90
2022/10/28 12:55:12;;;;;;;;;;;14.90;99.90;;;12.97;97.44;101359.97;10356877;28;32239;-90
2022/10/28 13:00:25;;;;;;;;;;;14.90;99.90;;;12.97;97.08;101355.47;10342238;28;19934;-89
2022/10/28 13:05:43;;;;;;;;;;;14.90;99.90;;;12.89;96.55;101339.38;10342385;28;19985;-88
2022/10/28 13:10:55;;;;;;;;;;;14.90;99.90;;;12.91;96.93;101348.09;10357341;28;19934;-88
2022/10/28 13:16:10;;;;;;;;;;;14.90;99.90;;;12.93;96.96;101350.59;10349194;28;20016;-88
2022/10/28 13:21:18;;;;;;;;;;;14.90;99.90;;;12.90;96.78;101346.44;10372990;28;20012;-89
2022/10/28 13:26:26;;;;;;;;;;;14.90;99.90;;;12.94;97.11;101342.44;10328142;28;19941;-89
2022/10/28 13:31:45;;;;;;;;;;;14.90;99.90;;;12.94;97.11;101342.44;10338445;28;19945;-88
2022/10/28 13:36:57;;;;;;;;;;;14.90;99.90;;;12.96;97.02;101344.97;10344047;28;19933;-89
2022/10/28 13:42:12;;;;;;;;;;;14.90;99.90;;;12.99;96.79;101342.81;10343661;28;19933;-88
2022/10/28 13:47:15;;;;;;;;;;;15.00;99.90;;;12.98;96.78;101345.63;10349697;28;19933;-89
2022/10/28 13:52:19;;;;;;;;;;;14.90;99.90;;;12.98;96.70;101349.16;10341012;28;20477;-89
2022/10/28 13:57:29;;;;;;;;;;;15.00;99.90;;;12.92;96.54;101339.09;10366969;28;19941;-89
2022/10/28 14:02:39;;;;;;;;;;;14.90;99.90;;;12.91;96.37;101352.59;10338364;28;20044;-89
2022/10/28 14:07:59;;;;;;;;;;;14.90;99.90;;;12.88;96.59;101353.72;10322761;28;19940;-88
2022/10/28 14:13:23;;;;;;;;;;;14.80;99.90;;;12.86;96.55;101353.88;10352984;28;20025;-89
2022/10/28 14:18:26;;;;;;;;;;;14.90;99.90;;;12.82;96.58;101347.19;10346386;28;19934;-92
2022/10/28 14:23:46;;;;;;;;;;;14.80;99.90;;;12.80;96.75;101353.66;10355859;28;19933;-91
2022/10/28 14:28:50;;;;;;;;;;;14.70;99.90;;;12.77;96.75;101356.63;10339721;28;19941;-90
2022/10/28 14:33:53;;;;;;;;;;;14.70;99.90;;;12.75;97.02;101354.13;10317616;28;19944;-93
2022/10/28 14:39:02;;;;;;;;;;;14.70;99.90;;;12.75;97.18;101359.47;10332370;28;19982;-89
2022/10/28 14:44:23;;;;;;;;;;;14.70;99.90;;;12.73;97.19;101348.13;10333909;28;20397;-89
2022/10/28 14:49:31;;;;;;;;;;;14.70;99.90;;;12.70;97.34;101339.56;10346745;28;19957;-89
2022/10/28 14:54:41;;;;;;;;;;;14.70;99.90;;;12.71;97.40;101346.56;10329999;28;20345;-89
2022/10/28 14:59:45;;;;;;;;;;;14.70;99.90;;;12.65;97.36;101328.53;10363523;28;19933;-89
2022/10/28 15:05:02;;;;;;;;;;;14.60;99.90;;;12.62;97.25;101336.84;10348836;28;19977;-89
2022/10/28 15:10:32;;;;;;;;;;;14.50;99.90;;;12.56;97.65;101331.13;10346342;28;19934;-89
2022/10/28 15:15:35;;;;;;;;;;;14.50;99.90;;;12.52;97.69;101315.59;10333414;28;19980;-87
2022/10/28 15:20:38;;;;;;;;;;;14.50;99.90;;;12.48;97.98;101311.56;10360135;28;19962;-87
2022/10/28 15:25:41;;;;;;;;;;;14.40;99.90;;;12.46;98.24;101314.38;10337891;28;20377;-87
2022/10/28 15:30:43;;;;;;;;;;;14.40;99.90;;;12.46;98.40;101319.69;10335976;28;20292;-90
2022/10/28 15:35:48;;;;;;;;;;;14.40;99.90;;;12.44;98.45;101304.84;10337641;28;19934;-86
2022/10/28 15:40:51;;;;;;;;;;;14.40;99.90;;;12.44;98.67;101308.34;10356995;28;20350;-86
2022/10/28 15:46:07;;;;;;;;;;;14.40;99.90;;;12.47;98.71;101323.19;10329126;28;19938;-86
2022/10/28 15:51:18;;;;;;;;;;;14.40;99.90;;;12.45;98.88;101317.19;10362347;28;19941;-84
2022/10/28 15:56:23;;;;;;;;;;;14.40;99.90;;;12.46;98.88;101318.88;10342363;28;19934;-86
2022/10/28 16:01:37;;;;;;;;;;;14.40;99.90;;;12.44;99.11;101307.53;10323973;28;19941;-86
2022/10/28 16:06:41;;;;;;;;;;;14.40;99.90;;;12.43;98.91;101316.53;10333080;28;19934;-86
2022/10/28 16:11:51;;;;;;;;;;;14.40;99.90;;;12.37;99.01;101307.31;10338285;28;19934;-86
2022/10/28 16:16:54;;;;;;;;;;;14.40;99.90;;;12.35;99.30;101309.25;10334920;28;20254;-86
2022/10/28 16:21:58;;;;;;;;;;;14.40;99.90;;;12.31;99.24;101306.09;10356852;28;19938;-86
2022/10/28 16:27:22;;;;;;;;;;;14.30;99.90;;;12.33;99.47;101320.09;10339429;28;19957;-86
2022/10/28 16:32:43;;;;;;;;;;;14.30;99.90;;;12.35;99.70;101319.91;10354339;28;19961;-86
2022/10/28 16:37:47;;;;;;;;;;;14.30;99.90;;;12.33;99.77;101311.25;10327210;28;20393;-86
2022/10/28 16:42:56;;;;;;;;;;;14.30;99.90;;;12.35;99.70;101325.25;10333440;28;20313;-86
2022/10/28 16:48:00;;;;;;;;;;;14.30;99.90;;;12.31;99.71;101324.75;10345989;28;19941;-86
2022/10/28 16:53:02;;;;;;;;;;;14.30;99.90;;;12.23;99.67;101315.81;10340091;28;19972;-86
2022/10/28 16:58:06;;;;;;;;;;;14.20;99.90;;;12.24;99.89;101318.34;10319013;28;19941;-86
2022/10/28 17:03:13;;;;;;;;;;;14.20;99.90;;;12.21;100.00;101323.13;10349763;28;20009;-86
2022/10/28 17:08:17;;;;;;;;;;;14.20;99.90;;;12.22;100.00;101330.13;10325096;28;20382;-85
2022/10/28 17:13:40;;;;;;;;;;;14.20;99.90;;;12.23;100.00;101324.63;10326126;28;20425;-86
2022/10/28 17:18:43;;;;;;;;;;;14.20;99.90;;;12.25;100.00;101327.19;10335031;28;19963;-86
2022/10/28 17:23:46;;;;;;;;;;;14.20;99.90;;;12.25;100.00;101321.84;10340814;28;19934;-86
2022/10/28 17:28:51;;;;;;;;;;;14.20;99.90;;;12.26;100.00;101321.69;10333799;28;19934;-86
2022/10/28 17:33:54;;;;;;;;;;;14.20;99.90;;;12.26;100.00;101323.50;10336802;28;19934;-86
2022/10/28 17:38:57;;;;;;;;;;;14.20;99.90;;;12.24;100.00;101328.16;10328216;28;20314;-86
2022/10/28 17:43:59;;;;;;;;;;;14.20;99.90;;;12.26;100.00;101328.84;10320550;28;19934;-86
2022/10/28 17:49:07;;;;;;;;;;;14.20;99.90;;;12.23;100.00;101334.47;10327089;28;19941;-86
2022/10/28 17:54:10;;;;;;;;;;;14.20;99.90;;;12.23;100.00;101329.13;10358986;28;19940;-86
2022/10/28 17:59:13;;;;;;;;;;;14.20;99.90;;;12.17;100.00;101322.56;10340959;28;19934;-86
2022/10/28 18:04:16;;;;;;;;;;;14.20;99.90;;;12.13;99.95;101325.72;10344147;28;19934;-85
2022/10/28 18:09:19;;;;;;;;;;;14.10;99.90;;;12.10;100.00;101326.00;10354459;28;20036;-88
2022/10/28 18:14:22;;;;;;;;;;;14.10;99.90;;;12.08;99.97;101333.31;10352657;28;19940;-86
2022/10/28 18:19:25;;;;;;;;;;;14.00;99.90;;;12.02;100.00;101316.94;10337162;28;20371;-86
2022/10/28 18:24:28;;;;;;;;;;;14.00;99.90;;;12.04;100.00;101320.28;10340262;28;19934;-86
2022/10/28 18:29:31;;;;;;;;;;;14.00;99.90;;;12.01;100.00;101306.44;10322186;28;20288;-86
2022/10/28 18:34:33;;;;;;;;;;;14.00;99.90;;;11.99;100.00;101305.72;10329398;28;19934;-86
2022/10/28 18:39:37;;;;;;;;;;;14.00;99.90;;;12.01;100.00;101309.94;10343101;28;19934;-86
2022/10/28 18:44:40;;;;;;;;;;;14.00;99.90;;;12.03;100.00;101310.63;10360609;28;19934;-86
2022/10/28 18:49:44;;;;;;;;;;;14.00;99.90;;;12.06;100.00;101301.50;10341739;28;19989;-86
2022/10/28 18:54:47;;;;;;;;;;;14.10;99.90;;;12.08;100.00;101296.03;10330242;28;19934;-86
2022/10/28 18:59:50;;;;;;;;;;;14.10;99.90;;;12.07;100.00;101295.19;10357041;28;20365;-86
2022/10/28 19:05:13;;;;;;;;;;;14.10;99.90;;;12.08;100.00;101291.53;10361933;28;19977;-86
2022/10/28 19:10:16;;;;;;;;;;;14.10;99.90;;;12.03;100.00;101294.63;10347131;28;19962;-86
2022/10/28 19:15:19;;;;;;;;;;;14.10;99.90;;;12.03;100.00;101291.13;10341282;28;19941;-86
2022/10/28 19:20:23;;;;;;;;;;;14.00;99.90;;;11.99;100.00;101298.56;10339765;28;19974;-86
2022/10/28 19:25:26;;;;;;;;;;;14.00;99.90;;;11.94;100.00;101295.56;10358005;28;20397;-86
2022/10/28 19:30:29;;;;;;;;;;;14.00;99.90;;;11.96;100.00;101309.53;10322452;28;19934;-85
2022/10/28 19:35:32;;;;;;;;;;;13.90;99.90;;;11.96;100.00;101314.03;10359338;28;19968;-85
2022/10/28 19:40:34;;;;;;;;;;;13.90;99.90;;;11.96;100.00;101314.88;10376215;28;19934;-85
2022/10/28 19:45:37;;;;;;;;;;;13.90;99.90;;;11.96;100.00;101314.03;10349723;28;19941;-85
2022/10/28 19:50:47;;;;;;;;;;;13.90;99.90;;;12.01;100.00;101306.44;10342383;28;19933;-85
2022/10/28 19:55:55;;;;;;;;;;;14.00;99.90;;;12.04;100.00;101309.63;10343175;28;20353;-86
2022/10/28 20:01:07;;;;;;;;;;;14.00;99.90;;;12.08;100.00;101304.00;10347990;28;19934;-85
2022/10/28 20:06:14;;;;;;;;;;;14.10;99.90;;;12.11;100.00;101311.69;10343193;28;20406;-85
2022/10/28 20:11:20;;;;;;;;;;;14.10;99.90;;;12.12;100.00;101305.41;10336713;28;20472;-85
2022/10/28 20:16:28;;;;;;;;;;;14.10;99.90;;;12.11;100.00;101309.84;10339549;28;19933;-86
2022/10/28 20:21:32;;;;;;;;;;;14.10;99.90;;;12.15;100.00;101313.06;10379990;28;19940;-86
2022/10/28 20:26:36;;;;;;;;;;;14.20;99.90;;;12.18;100.00;101318.13;10346581;28;20024;-86
2022/10/28 20:31:39;;;;;;;;;;;14.20;99.90;;;12.16;99.80;101318.25;10353434;28;19934;-85
2022/10/28 20:36:45;;;;;;;;;;;14.20;99.90;;;12.19;99.83;101317.97;10337792;28;19941;-85
2022/10/28 20:41:50;;;;;;;;;;;14.20;99.90;;;12.21;99.80;101325.78;10334617;28;19934;-86
2022/10/28 20:46:53;;;;;;;;;;;14.20;99.90;;;12.19;99.59;101319.78;10339405;28;20324;-85
2022/10/28 20:51:55;;;;;;;;;;;14.20;99.90;;;12.21;99.69;101320.47;10337227;28;19940;-86
2022/10/28 20:56:58;;;;;;;;;;;14.30;99.90;;;12.24;99.59;101325.50;10341515;28;20036;-86
2022/10/28 21:02:02;;;;;;;;;;;14.30;99.90;;;12.24;99.31;101326.34;10319744;28;19973;-86
2022/10/28 21:07:07;;;;;;;;;;;14.30;99.90;;;12.27;99.37;101325.19;10356211;28;19981;-86
2022/10/28 21:12:10;;;;;;;;;;;14.30;99.90;;;12.23;99.11;101316.63;10329313;28;19957;-86
2022/10/28 21:17:13;;;;;;;;;;;14.30;99.90;;;12.25;99.09;101324.50;10323744;28;19965;-85
2022/10/28 21:22:17;;;;;;;;;;;14.30;99.90;;;12.26;99.08;101320.84;10328435;28;20036;-84
2022/10/28 21:27:20;;;;;;;;;;;14.30;99.90;;;12.24;98.88;101309.50;10362858;28;19933;-78
2022/10/28 21:32:23;;;;;;;;;;;14.30;99.90;;;12.20;98.80;101308.13;10347587;28;19934;-84
2022/10/28 21:37:26;;;;;;;;;;;14.20;99.90;;;12.17;98.83;101303.91;10345367;28;19934;-85
2022/10/28 21:42:28;;;;;;;;;;;14.20;99.90;;;12.18;98.85;101299.47;10352781;28;19934;-84
2022/10/28 21:47:31;;;;;;;;;;;14.20;99.90;;;12.19;98.73;101301.13;10318822;28;20294;-85
2022/10/28 21:52:34;;;;;;;;;;;14.20;99.90;;;12.18;98.68;101294.97;10334470;28;20032;-85
2022/10/28 21:57:36;;;;;;;;;;;14.20;99.90;;;12.21;98.42;101293.81;10339904;28;19941;-85
2022/10/28 22:02:39;;;;;;;;;;;14.20;99.90;;;12.19;98.86;101288.63;10341963;28;19941;-85
2022/10/28 22:07:43;;;;;;;;;;;14.20;99.90;;;12.20;98.68;101300.13;10344585;28;20420;-84
2022/10/28 22:12:45;;;;;;;;;;;14.20;99.90;;;12.22;98.88;101285.66;10336982;28;20018;-84
2022/10/28 22:17:48;;;;;;;;;;;14.20;99.90;;;12.23;98.85;101283.81;10315314;28;20440;-84
2022/10/28 22:22:51;;;;;;;;;;;14.20;99.90;;;12.27;98.88;101285.22;10344615;28;19941;-85
2022/10/28 22:27:54;;;;;;;;;;;14.30;99.90;;;12.26;98.96;101287.03;10328308;28;19940;-86
2022/10/28 22:32:57;;;;;;;;;;;14.30;99.90;;;12.26;98.81;101275.53;10329959;28;20401;-85
2022/10/28 22:38:00;;;;;;;;;;;14.30;99.90;;;12.27;98.94;101274.53;10330961;28;19981;-85
2022/10/28 22:43:02;;;;;;;;;;;14.30;99.90;;;12.28;98.93;101276.22;10345477;28;19934;-86
2022/10/28 22:48:05;;;;;;;;;;;14.30;99.90;;;12.27;99.01;101269.22;10357127;28;20025;-86
2022/10/28 22:53:08;;;;;;;;;;;14.30;99.90;;;12.25;98.84;101261.38;10324865;28;19941;-86